Time;durP1;ratioP1;P1;durP2;ratioP2;P2;SDS_P1;SDS_P2;PMS_P1;PMS_P2;Temp;Humidity;BMP_temperature;BMP_pressure;BME280_temperature;BME280_humidity;BME280_pressure;Samples;Min_cycle;Max_cycle;Signal;HPM_P1;HPM_P2
2021/08/14 00:01:57;;;;;;;;;;;;;;;15.91;77.60;102142.66;5043960;28;19924;-50
2021/08/14 00:04:23;;;;;;;;;;;;;;;15.86;77.98;102134.16;5066327;28;20618;-49
2021/08/14 00:06:50;;;;;;;;;;;;;;;15.83;78.26;102129.06;5079886;28;19933;-48
2021/08/14 00:09:17;;;;;;;;;;;;;;;15.82;78.43;102135.31;5083241;28;19924;-48
2021/08/14 00:11:43;;;;;;;;;;;;;;;15.80;78.10;102146.03;5065166;28;19932;-48
2021/08/14 00:14:10;;;;;;;;;;;;;;;15.79;78.67;102149.59;5079350;28;20314;-45
2021/08/14 00:16:37;;;;;;;;;;;;;;;15.75;78.64;102142.81;5083024;28;19928;-47
2021/08/14 00:19:03;;;;;;;;;;;;;;;15.69;79.26;102152.03;5066465;28;19925;-50
2021/08/14 00:21:30;;;;;;;;;;;;;;;15.67;78.68;102145.97;5048557;28;19924;-48
2021/08/14 00:23:57;;;;;;;;;;;;;;;15.72;78.73;102137.72;5066895;28;20379;-46
2021/08/14 00:26:24;;;;;;;;;;;;;;;15.73;78.88;102152.66;5082319;28;19982;-49
2021/08/14 00:28:50;;;;;;;;;;;;;;;15.72;79.42;102145.66;5066229;28;20347;-47
2021/08/14 00:31:18;;;;;;;;;;;;;;;15.66;79.22;102144.25;5086705;28;19977;-47
2021/08/14 00:33:44;;;;;;;;;;;;;;;15.60;80.22;102139.38;5083462;28;19998;-49
2021/08/14 00:36:11;;;;;;;;;;;;;;;15.60;79.41;102133.19;5089494;28;20276;-47
2021/08/14 00:38:38;;;;;;;;;;;;;;;15.54;79.68;102143.28;5094869;28;19947;-45
2021/08/14 00:41:04;;;;;;;;;;;;;;;15.51;79.70;102129.38;5074393;28;19928;-46
2021/08/14 00:43:31;;;;;;;;;;;;;;;15.49;79.43;102129.47;5080177;28;19977;-47
2021/08/14 00:45:58;;;;;;;;;;;;;;;15.50;80.14;102131.19;5081382;28;19931;-48
2021/08/14 00:48:33;;;;;;;;;;;;;;;15.57;79.95;102130.75;5082044;28;20011;-48
2021/08/14 00:51:00;;;;;;;;;;;;;;;15.51;81.00;102129.38;5073745;28;19952;-45
2021/08/14 00:53:26;;;;;;;;;;;;;;;15.59;80.61;102135.00;5088846;28;19960;-47
2021/08/14 00:55:54;;;;;;;;;;;;;;;15.55;80.09;102130.84;5095014;28;19928;-46
2021/08/14 00:58:21;;;;;;;;;;;;;;;15.59;80.48;102142.97;5090495;28;19928;-46
2021/08/14 01:00:47;;;;;;;;;;;;;;;15.57;80.46;102136.06;5068652;28;19929;-47
2021/08/14 01:03:14;;;;;;;;;;;;;;;15.54;80.85;102145.94;5058974;28;19959;-51
2021/08/14 01:05:42;;;;;;;;;;;;;;;15.56;81.11;102145.81;5052653;28;19939;-50
2021/08/14 01:08:09;;;;;;;;;;;;;;;15.60;81.10;102139.38;5091307;28;19928;-51
2021/08/14 01:10:36;;;;;;;;;;;;;;;15.49;81.29;102145.38;5078516;28;19924;-47
2021/08/14 01:13:03;;;;;;;;;;;;;;;15.48;81.64;102148.97;5093217;28;20302;-49
2021/08/14 01:15:29;;;;;;;;;;;;;;;15.48;81.53;102146.31;5091534;28;19931;-47
2021/08/14 01:17:56;;;;;;;;;;;;;;;15.52;81.01;102149.63;5091276;28;19931;-50
2021/08/14 01:20:23;;;;;;;;;;;;;;;15.53;81.45;102146.03;5061385;28;20440;-47
2021/08/14 01:22:50;;;;;;;;;;;;;;;15.49;81.51;102134.78;5037561;28;19932;-50
2021/08/14 01:25:18;;;;;;;;;;;;;;;15.48;81.17;102124.28;5070859;28;20010;-45
2021/08/14 01:27:45;;;;;;;;;;;;;;;15.48;81.40;102124.28;5076409;28;19925;-50
2021/08/14 01:30:13;;;;;;;;;;;;;;;15.52;81.50;102126.59;5066768;28;19927;-50
2021/08/14 01:32:39;;;;;;;;;;;;;;;15.47;81.46;102114.63;5066681;28;20414;-48
2021/08/14 01:35:07;;;;;;;;;;;;;;;15.47;81.30;102120.75;5073906;28;20448;-47
2021/08/14 01:37:33;;;;;;;;;;;;;;;15.49;80.92;102116.22;5092677;28;19928;-51
2021/08/14 01:40:00;;;;;;;;;;;;;;;15.42;81.47;102109.63;5082302;28;19935;-47
2021/08/14 01:42:27;;;;;;;;;;;;;;;15.31;82.56;102102.38;5066722;28;20292;-49
2021/08/14 01:44:54;;;;;;;;;;;;;;;15.28;81.96;102113.16;5067652;28;19924;-49
2021/08/14 01:47:20;;;;;;;;;;;;;;;15.26;82.10;102114.22;5072129;28;19925;-50
2021/08/14 01:49:47;;;;;;;;;;;;;;;15.24;81.73;102116.94;5091676;28;19924;-50
2021/08/14 01:52:14;;;;;;;;;;;;;;;15.28;81.95;102115.81;5084506;28;19924;-49
2021/08/14 01:54:41;;;;;;;;;;;;;;;15.33;81.74;102113.72;5062707;28;19932;-46
2021/08/14 01:57:08;;;;;;;;;;;;;;;15.20;83.15;102104.84;5053094;28;19932;-50
2021/08/14 01:59:35;;;;;;;;;;;;;;;15.21;82.97;102101.25;5081114;28;19925;-45
2021/08/14 02:02:05;;;;;;;;;;;;;;;15.12;83.33;102101.84;5057974;28;19925;-48
2021/08/14 02:04:32;;;;;;;;;;;;;;;15.11;83.83;102097.53;5054024;28;20023;-49
2021/08/14 02:06:59;;;;;;;;;;;;;;;15.19;83.09;102100.53;5089265;28;19931;-48
2021/08/14 02:09:26;;;;;;;;;;;;;;;15.20;82.69;102094.25;5058530;28;19928;-45
2021/08/14 02:11:52;;;;;;;;;;;;;;;15.11;82.59;102094.88;5084050;28;19924;-49
2021/08/14 02:14:19;;;;;;;;;;;;;;;15.12;82.92;102097.41;5091365;28;19969;-46
2021/08/14 02:16:46;;;;;;;;;;;;;;;15.10;82.97;102093.16;5078185;28;19956;-47
2021/08/14 02:19:12;;;;;;;;;;;;;;;15.06;82.80;102095.16;5085382;28;19993;-46
2021/08/14 02:21:39;;;;;;;;;;;;;;;15.06;82.55;102089.00;5077941;28;19978;-45
2021/08/14 02:24:06;;;;;;;;;;;;;;;15.04;83.10;102097.91;5079105;28;19924;-49
2021/08/14 02:26:32;;;;;;;;;;;;;;;15.07;82.77;102088.06;5073812;28;19925;-46
2021/08/14 02:28:59;;;;;;;;;;;;;;;15.02;83.32;102080.41;5089267;28;20019;-50
2021/08/14 02:31:26;;;;;;;;;;;;;;;15.08;83.26;102082.66;5093407;28;20394;-45
2021/08/14 02:33:53;;;;;;;;;;;;;;;15.10;83.25;102088.72;5078120;28;20363;-47
2021/08/14 02:36:20;;;;;;;;;;;;;;;15.02;83.43;102081.28;5070260;28;19965;-45
2021/08/14 02:38:47;;;;;;;;;;;;;;;15.00;84.31;102069.06;5065808;28;19924;-45
2021/08/14 02:41:13;;;;;;;;;;;;;;;14.91;84.43;102078.44;5093194;28;19924;-48
2021/08/14 02:43:40;;;;;;;;;;;;;;;14.86;85.43;102072.59;5092553;28;19950;-46
2021/08/14 02:46:07;;;;;;;;;;;;;;;14.85;85.40;102074.41;5093250;28;19924;-46
2021/08/14 02:48:33;;;;;;;;;;;;;;;14.81;84.67;102070.25;5082741;28;19993;-58
2021/08/14 02:51:00;;;;;;;;;;;;;;;14.76;85.23;102074.13;5051522;28;19978;-58
2021/08/14 02:53:27;;;;;;;;;;;;;;;14.73;85.63;102084.94;5072480;28;20363;-58
2021/08/14 02:55:53;;;;;;;;;;;;;;;14.68;85.23;102080.78;5074993;28;19932;-58
2021/08/14 02:58:20;;;;;;;;;;;;;;;14.70;85.43;102091.25;5089767;28;20405;-58
2021/08/14 03:00:47;;;;;;;;;;;;;;;14.67;85.51;102089.66;5062369;28;19928;-58
2021/08/14 03:03:14;;;;;;;;;;;;;;;14.66;85.18;102090.59;5068513;28;19925;-57
2021/08/14 03:05:41;;;;;;;;;;;;;;;14.62;85.36;102086.41;5071590;28;19932;-58
2021/08/14 03:08:11;;;;;;;;;;;;;;;14.60;86.21;102088.31;5067741;28;19939;-57
2021/08/14 03:10:38;;;;;;;;;;;;;;;14.61;86.40;102091.81;5092547;28;19931;-58
2021/08/14 03:13:05;;;;;;;;;;;;;;;14.63;86.45;102085.50;5070954;28;19928;-58
2021/08/14 03:15:32;;;;;;;;;;;;;;;14.66;86.02;102085.31;5089507;28;19928;-59
2021/08/14 03:17:58;;;;;;;;;;;;;;;14.68;85.50;102075.47;5092834;28;19931;-59
2021/08/14 03:20:25;;;;;;;;;;;;;;;14.62;85.20;102077.63;5092553;28;20288;-58
2021/08/14 03:22:52;;;;;;;;;;;;;;;14.62;85.22;102075.81;5074991;28;19925;-58
2021/08/14 03:25:19;;;;;;;;;;;;;;;14.59;85.19;102080.44;5095592;28;19970;-57
2021/08/14 03:27:46;;;;;;;;;;;;;;;14.57;85.14;102069.97;5097119;28;19928;-43
2021/08/14 03:30:14;;;;;;;;;;;;;;;14.53;86.08;102068.44;5096763;28;19928;-48
2021/08/14 03:32:41;;;;;;;;;;;;;;;14.49;86.31;102065.16;5078882;28;19924;-47
2021/08/14 03:35:08;;;;;;;;;;;;;;;14.44;86.04;102056.66;5095128;28;19928;-49
2021/08/14 03:37:34;;;;;;;;;;;;;;;14.41;85.51;102058.63;5075549;28;20329;-47
2021/08/14 03:40:01;;;;;;;;;;;;;;;14.43;86.33;102062.88;5095502;28;19924;-47
2021/08/14 03:42:27;;;;;;;;;;;;;;;14.47;86.55;102058.25;5096474;28;20456;-47
2021/08/14 03:44:54;;;;;;;;;;;;;;;14.47;86.07;102060.91;5096402;28;19924;-45
2021/08/14 03:47:21;;;;;;;;;;;;;;;14.45;86.19;102055.72;5076993;28;19924;-50
2021/08/14 03:49:47;;;;;;;;;;;;;;;14.40;86.65;102056.91;5093753;28;20317;-47
2021/08/14 03:52:14;;;;;;;;;;;;;;;14.39;86.16;102058.72;5095578;28;19924;-47
2021/08/14 03:54:43;;;;;;;;;;;;;;;14.44;86.13;102066.38;5078477;28;20030;-49
2021/08/14 03:57:09;;;;;;;;;;;;;;;14.40;85.97;102064.84;5078722;28;20000;-47
2021/08/14 03:59:36;;;;;;;;;;;;;;;14.29;86.85;102063.75;5095695;28;19932;-48
2021/08/14 04:02:03;;;;;;;;;;;;;;;14.29;86.35;102071.69;5092991;28;19932;-48
2021/08/14 04:04:29;;;;;;;;;;;;;;;14.29;86.17;102076.97;5094993;28;20408;-48
2021/08/14 04:06:56;;;;;;;;;;;;;;;14.25;87.01;102074.59;5096285;28;19924;-47
2021/08/14 04:09:23;;;;;;;;;;;;;;;14.23;87.29;102077.34;5096132;28;19928;-47
2021/08/14 04:11:49;;;;;;;;;;;;;;;14.23;86.97;102073.84;5077862;28;19927;-47
2021/08/14 04:14:16;;;;;;;;;;;;;;;14.19;87.55;102075.81;5092183;28;19924;-50
2021/08/14 04:16:43;;;;;;;;;;;;;;;14.13;87.47;102070.91;5094226;28;19924;-47
2021/08/14 04:19:10;;;;;;;;;;;;;;;14.09;88.32;102069.41;5078193;28;19924;-45
2021/08/14 04:21:36;;;;;;;;;;;;;;;14.15;87.35;102074.31;5095680;28;19931;-43
2021/08/14 04:24:03;;;;;;;;;;;;;;;14.17;86.82;102078.56;5095851;28;20507;-45
2021/08/14 04:26:30;;;;;;;;;;;;;;;14.17;86.56;102075.91;5093460;28;19970;-46
2021/08/14 04:28:57;;;;;;;;;;;;;;;14.19;87.00;102075.81;5092386;28;19924;-44
2021/08/14 04:31:24;;;;;;;;;;;;;;;14.16;87.28;102074.22;5077759;28;19931;-58
2021/08/14 04:33:51;;;;;;;;;;;;;;;14.19;86.66;102070.53;5095618;28;20272;-58
2021/08/14 04:36:17;;;;;;;;;;;;;;;14.15;86.63;102069.88;5095338;28;19969;-58
2021/08/14 04:38:44;;;;;;;;;;;;;;;14.16;86.84;102070.72;5095547;28;20383;-58
2021/08/14 04:41:10;;;;;;;;;;;;;;;14.17;86.50;102067.97;5094937;28;19928;-58
2021/08/14 04:43:37;;;;;;;;;;;;;;;14.14;86.69;102067.34;5095337;28;19924;-58
2021/08/14 04:46:04;;;;;;;;;;;;;;;14.14;86.57;102062.06;5094775;28;20412;-58
2021/08/14 04:48:30;;;;;;;;;;;;;;;14.15;87.42;102067.25;5074100;28;19928;-58
2021/08/14 04:50:57;;;;;;;;;;;;;;;14.14;87.87;102070.81;5076618;28;19925;-58
2021/08/14 04:53:24;;;;;;;;;;;;;;;14.19;88.02;102068.75;5095194;28;19931;-58
2021/08/14 04:55:50;;;;;;;;;;;;;;;14.21;88.18;102068.66;5095322;28;19970;-58
2021/08/14 04:58:17;;;;;;;;;;;;;;;14.17;88.40;102067.16;5095511;28;20349;-58
2021/08/14 05:00:43;;;;;;;;;;;;;;;14.18;88.02;102063.56;5095000;28;20398;-46
2021/08/14 05:03:10;;;;;;;;;;;;;;;14.19;87.95;102062.59;5094916;28;19930;-49
2021/08/14 05:05:37;;;;;;;;;;;;;;;14.19;88.12;102058.16;5094914;28;19977;-47
2021/08/14 05:08:04;;;;;;;;;;;;;;;14.19;87.75;102059.94;5096741;28;19930;-47
2021/08/14 05:10:30;;;;;;;;;;;;;;;14.22;87.63;102065.06;5077086;28;20422;-49
2021/08/14 05:12:57;;;;;;;;;;;;;;;14.23;88.58;102064.09;5094962;28;19928;-46
2021/08/14 05:15:24;;;;;;;;;;;;;;;14.23;88.97;102058.81;5094812;28;19924;-51
2021/08/14 05:17:50;;;;;;;;;;;;;;;14.23;89.59;102053.53;5095095;28;19924;-47
2021/08/14 05:20:17;;;;;;;;;;;;;;;14.25;88.87;102053.41;5074982;28;20329;-46
2021/08/14 05:22:44;;;;;;;;;;;;;;;14.24;88.69;102057.88;5091717;28;19935;-45
2021/08/14 05:25:11;;;;;;;;;;;;;;;14.24;89.40;102052.59;5094846;28;19959;-48
2021/08/14 05:27:38;;;;;;;;;;;;;;;14.26;89.12;102050.72;5094599;28;19974;-49
2021/08/14 05:30:04;;;;;;;;;;;;;;;14.30;88.68;102061.94;5093250;28;19924;-47
2021/08/14 05:32:31;;;;;;;;;;;;;;;14.38;88.64;102059.66;5091279;28;19928;-50
2021/08/14 05:34:58;;;;;;;;;;;;;;;14.41;88.78;102053.34;5093750;28;19924;-50
2021/08/14 05:37:25;;;;;;;;;;;;;;;14.44;88.87;102050.50;5094464;28;20562;-58
2021/08/14 05:39:51;;;;;;;;;;;;;;;14.47;89.19;102047.66;5094507;28;19969;-58
2021/08/14 05:42:18;;;;;;;;;;;;;;;14.51;89.44;102050.03;5093006;28;19924;-57
2021/08/14 05:44:44;;;;;;;;;;;;;;;14.55;89.57;102053.34;5090193;28;19973;-57
2021/08/14 05:47:11;;;;;;;;;;;;;;;14.61;89.02;102058.22;5092775;28;19924;-57
2021/08/14 05:49:38;;;;;;;;;;;;;;;14.67;89.54;102055.22;5094038;28;20027;-50
2021/08/14 05:52:05;;;;;;;;;;;;;;;14.75;89.18;102056.53;5091482;28;20367;-45
2021/08/14 05:54:33;;;;;;;;;;;;;;;14.81;89.39;102048.22;5091370;28;19970;-44
2021/08/14 05:56:59;;;;;;;;;;;;;;;14.91;88.58;102045.81;5076212;28;19924;-46
2021/08/14 05:59:26;;;;;;;;;;;;;;;14.97;88.55;102056.88;5094298;28;20354;-46
2021/08/14 06:01:53;;;;;;;;;;;;;;;15.04;88.61;102058.16;5093986;28;19927;-46
2021/08/14 06:04:19;;;;;;;;;;;;;;;15.13;88.87;102055.88;5076149;28;19924;-46
2021/08/14 06:06:46;;;;;;;;;;;;;;;15.21;88.55;102058.84;5075268;28;20390;-45
2021/08/14 06:09:13;;;;;;;;;;;;;;;15.29;87.71;102064.50;5091353;28;19935;-47
2021/08/14 06:11:39;;;;;;;;;;;;;;;15.38;87.12;102052.47;5092127;28;20060;-44
2021/08/14 06:14:06;;;;;;;;;;;;;;;15.46;87.05;102052.81;5075719;28;19977;-43
2021/08/14 06:16:33;;;;;;;;;;;;;;;15.57;86.15;102052.09;5093906;28;20398;-58
2021/08/14 06:18:59;;;;;;;;;;;;;;;15.65;85.85;102052.41;5093739;28;19934;-58
2021/08/14 06:21:26;;;;;;;;;;;;;;;15.75;85.35;102057.06;5075461;28;20383;-58
2021/08/14 06:23:53;;;;;;;;;;;;;;;15.85;85.39;102059.03;5092764;28;19932;-59
2021/08/14 06:26:19;;;;;;;;;;;;;;;15.93;85.46;102055.84;5056071;28;19924;-58
2021/08/14 06:28:46;;;;;;;;;;;;;;;16.06;84.06;102039.97;5092382;28;19932;-59
2021/08/14 06:31:14;;;;;;;;;;;;;;;16.13;84.30;102041.22;5093604;28;19928;-58
2021/08/14 06:33:41;;;;;;;;;;;;;;;16.24;84.01;102037.81;5093411;28;19931;-58
2021/08/14 06:36:09;;;;;;;;;;;;;;;16.35;84.21;102050.31;5075261;28;20482;-58
2021/08/14 06:38:36;;;;;;;;;;;;;;;16.45;84.03;102061.97;5093455;28;19973;-58
2021/08/14 06:41:03;;;;;;;;;;;;;;;16.57;83.38;102062.91;5075509;28;19935;-58
2021/08/14 06:43:30;;;;;;;;;;;;;;;16.67;82.85;102055.13;5093296;28;19931;-58
2021/08/14 06:45:56;;;;;;;;;;;;;;;16.79;82.05;102064.88;5093199;28;19924;-58
2021/08/14 06:48:23;;;;;;;;;;;;;;;16.90;82.08;102061.47;5093322;28;19928;-51
2021/08/14 06:50:50;;;;;;;;;;;;;;;17.02;82.04;102059.72;5093512;28;19928;-48
2021/08/14 06:53:16;;;;;;;;;;;;;;;17.15;80.83;102059.66;5091567;28;19973;-47
2021/08/14 06:55:43;;;;;;;;;;;;;;;17.28;80.97;102057.78;5090212;28;19932;-46
2021/08/14 06:58:10;;;;;;;;;;;;;;;17.37;79.13;102043.81;5091772;28;19924;-49
2021/08/14 07:00:36;;;;;;;;;;;;;;;17.51;79.34;102042.78;5093054;28;20353;-47
2021/08/14 07:03:05;;;;;;;;;;;;;;;17.64;79.55;102044.50;5092188;28;19934;-48
2021/08/14 07:05:32;;;;;;;;;;;;;;;17.78;79.34;102038.09;5090279;28;20394;-50
2021/08/14 07:07:59;;;;;;;;;;;;;;;17.93;77.68;102030.78;5073124;28;19924;-50
2021/08/14 07:10:25;;;;;;;;;;;;;;;18.07;76.94;102027.91;5092870;28;19924;-51
2021/08/14 07:12:52;;;;;;;;;;;;;;;18.21;76.53;102034.81;5074943;28;19935;-49
2021/08/14 07:15:19;;;;;;;;;;;;;;;18.34;76.03;102040.84;5092683;28;19941;-48
2021/08/14 07:17:46;;;;;;;;;;;;;;;18.46;75.48;102040.84;5092975;28;20371;-50
2021/08/14 07:20:13;;;;;;;;;;;;;;;18.56;74.52;102045.31;5091395;28;19924;-49
2021/08/14 07:22:39;;;;;;;;;;;;;;;18.70;74.09;102048.69;5072030;28;19989;-46
2021/08/14 07:25:06;;;;;;;;;;;;;;;18.85;74.28;102051.91;5091716;28;19993;-48
2021/08/14 07:27:33;;;;;;;;;;;;;;;18.94;73.57;102061.00;5092651;28;19924;-50
2021/08/14 07:29:59;;;;;;;;;;;;;;;19.02;72.24;102059.41;5092704;28;19977;-50
2021/08/14 07:32:26;;;;;;;;;;;;;;;19.19;72.23;102059.84;5092800;28;20387;-46
2021/08/14 07:34:53;;;;;;;;;;;;;;;19.37;72.48;102057.47;5092414;28;19977;-46
2021/08/14 07:37:19;;;;;;;;;;;;;;;19.50;71.22;102057.28;5092499;28;19928;-47
2021/08/14 07:39:46;;;;;;;;;;;;;;;19.64;70.90;102051.63;5074547;28;20394;-48
2021/08/14 07:42:13;;;;;;;;;;;;;;;19.64;70.16;102048.94;5092219;28;20371;-45
2021/08/14 07:44:39;;;;;;;;;;;;;;;19.86;70.58;102044.47;5088572;28;19924;-46
2021/08/14 07:47:14;;;;;;;;;;;;;;;19.97;70.28;102035.53;5058502;28;20016;-47
2021/08/14 07:49:41;;;;;;;;;;;;;;;20.13;69.21;102043.06;5091957;28;19930;-48
2021/08/14 07:52:08;;;;;;;;;;;;;;;20.29;68.30;102042.56;5092193;28;19925;-50
2021/08/14 07:54:35;;;;;;;;;;;;;;;20.41;68.87;102045.00;5091957;28;19969;-50
2021/08/14 07:57:02;;;;;;;;;;;;;;;20.52;68.13;102045.88;5071405;28;19932;-51
2021/08/14 07:59:28;;;;;;;;;;;;;;;20.76;67.95;102042.88;5088526;28;19977;-51
2021/08/14 08:01:55;;;;;;;;;;;;;;;20.71;67.30;102043.28;5074445;28;19924;-48
2021/08/14 08:04:22;;;;;;;;;;;;;;;20.88;66.61;102033.75;5074248;28;19956;-58
2021/08/14 08:06:48;;;;;;;;;;;;;;;20.99;66.37;102030.09;5092346;28;20329;-59
2021/08/14 08:09:15;;;;;;;;;;;;;;;21.26;66.16;102033.91;5074434;28;19928;-59
2021/08/14 08:11:42;;;;;;;;;;;;;;;21.48;65.83;102037.28;5094983;28;20417;-59
2021/08/14 08:14:08;;;;;;;;;;;;;;;21.65;64.81;102033.03;5091565;28;20772;-59
2021/08/14 08:16:35;;;;;;;;;;;;;;;21.68;64.47;102038.94;5076054;28;19927;-52
2021/08/14 08:19:02;;;;;;;;;;;;;;;21.85;63.95;102037.34;5093731;28;19923;-50
2021/08/14 08:21:29;;;;;;;;;;;;;;;22.02;62.39;102027.72;5074554;28;20497;-59
2021/08/14 08:23:55;;;;;;;;;;;;;;;22.23;64.07;102034.69;5094813;28;19928;-59
2021/08/14 08:26:22;;;;;;;;;;;;;;;22.45;62.75;102037.00;5095287;28;19924;-59
2021/08/14 08:28:48;;;;;;;;;;;;;;;22.67;62.47;102037.56;5095828;28;19969;-59
2021/08/14 08:31:15;;;;;;;;;;;;;;;22.69;60.22;102037.44;5095930;28;20378;-59
2021/08/14 08:33:42;;;;;;;;;;;;;;;22.91;60.61;102038.81;5093779;28;19924;-59
2021/08/14 08:36:08;;;;;;;;;;;;;;;23.09;60.45;102030.75;5074840;28;19928;-59
2021/08/14 08:38:35;;;;;;;;;;;;;;;23.19;60.36;102025.34;5095183;28;19951;-59
2021/08/14 08:41:02;;;;;;;;;;;;;;;23.12;60.49;102019.72;5095593;28;20434;-59
2021/08/14 08:43:28;;;;;;;;;;;;;;;23.31;58.97;102026.78;5075243;28;20394;-59
2021/08/14 08:45:55;;;;;;;;;;;;;;;23.31;58.88;102021.41;5092549;28;20298;-59
2021/08/14 08:48:22;;;;;;;;;;;;;;;23.42;58.78;102021.19;5093521;28;19931;-59
2021/08/14 08:50:48;;;;;;;;;;;;;;;23.54;58.37;102018.25;5077558;28;20279;-59
2021/08/14 08:53:15;;;;;;;;;;;;;;;23.92;58.56;102018.84;5095353;28;19924;-59
2021/08/14 08:55:42;;;;;;;;;;;;;;;24.08;57.63;102010.03;5077421;28;20040;-59
2021/08/14 08:58:09;;;;;;;;;;;;;;;24.20;57.55;102015.94;5074616;28;19932;-59
2021/08/14 09:00:35;;;;;;;;;;;;;;;24.29;57.38;102015.78;5074406;28;20306;-59
2021/08/14 09:03:08;;;;;;;;;;;;;;;24.45;56.23;102015.00;5093417;28;19924;-59
2021/08/14 09:05:43;;;;;;;;;;;;;;;24.74;55.78;102021.81;5077061;28;19931;-53
2021/08/14 09:08:10;;;;;;;;;;;;;;;24.86;54.41;102019.66;5077161;28;19924;-53
2021/08/14 09:10:37;;;;;;;;;;;;;;;24.98;54.79;102015.66;5077349;28;19974;-49
2021/08/14 09:13:17;;;;;;;;;;;;;;;25.00;54.64;102004.72;5095185;28;19932;-50
2021/08/14 09:15:43;;;;;;;;;;;;;;;24.94;53.93;102006.22;5076836;28;19930;-53
2021/08/14 09:18:11;;;;;;;;;;;;;;;25.29;53.60;102016.81;5095089;28;19924;-51
2021/08/14 09:20:46;;;;;;;;;;;;;;;25.58;53.74;102012.78;5077053;28;19932;-49
2021/08/14 09:23:18;;;;;;;;;;;;;;;25.53;52.00;102009.78;5093854;28;19930;-46
2021/08/14 09:25:44;;;;;;;;;;;;;;;25.68;52.44;102013.44;5094831;28;19931;-50
2021/08/14 09:28:11;;;;;;;;;;;;;;;25.54;50.58;102008.75;5094383;28;19985;-49
2021/08/14 09:30:55;;;;;;;;;;;;;;;25.35;51.79;102005.41;5094341;28;19924;-46
2021/08/14 09:33:25;;;;;;;;;;;;;;;25.53;51.60;101999.00;5094037;28;19924;-47
2021/08/14 09:36:02;;;;;;;;;;;;;;;25.81;50.33;102002.13;5076333;28;19925;-49
2021/08/14 09:38:41;;;;;;;;;;;;;;;25.85;49.80;102002.59;5076608;28;19928;-47
2021/08/14 09:41:09;;;;;;;;;;;;;;;26.18;49.28;102002.50;5076265;28;19970;-59
2021/08/14 09:43:35;;;;;;;;;;;;;;;26.27;49.30;102005.00;5094229;28;19924;-49
2021/08/14 09:46:02;;;;;;;;;;;;;;;26.31;50.01;102008.16;5094361;28;19931;-51
2021/08/14 09:48:29;;;;;;;;;;;;;;;26.54;49.00;102015.47;5094309;28;19924;-50
2021/08/14 09:50:56;;;;;;;;;;;;;;;26.59;49.39;102011.22;5094275;28;19924;-59
2021/08/14 09:53:23;;;;;;;;;;;;;;;26.62;49.43;102013.56;5076160;28;19924;-59
2021/08/14 09:56:22;;;;;;;;;;;;;;;26.85;49.33;102014.63;5091076;28;19924;-60
2021/08/14 09:58:49;;;;;;;;;;;;;;;26.87;48.77;102010.72;5036502;28;20371;-59
2021/08/14 10:01:15;;;;;;;;;;;;;;;26.87;48.30;102015.28;5076007;28;20432;-60
2021/08/14 10:03:42;;;;;;;;;;;;;;;27.00;47.85;102020.91;5094116;28;19924;-60
2021/08/14 10:06:09;;;;;;;;;;;;;;;26.76;48.59;102016.53;5057012;28;19924;-60
2021/08/14 10:08:36;;;;;;;;;;;;;;;26.53;47.43;102021.88;5073132;28;19924;-45
2021/08/14 10:11:07;;;;;;;;;;;;;;;26.85;47.62;102020.84;5059297;28;19924;-47
2021/08/14 10:13:33;;;;;;;;;;;;;;;26.69;45.89;102021.78;5076172;28;19924;-59
2021/08/14 10:16:00;;;;;;;;;;;;;;;26.55;47.24;102014.47;5091264;28;19935;-58
2021/08/14 10:18:27;;;;;;;;;;;;;;;26.99;47.64;102011.97;5055149;28;19934;-59
2021/08/14 10:20:53;;;;;;;;;;;;;;;26.96;46.54;102017.72;5075386;28;19930;-59
2021/08/14 10:23:22;;;;;;;;;;;;;;;27.18;45.85;102022.47;5093560;28;20444;-59
2021/08/14 10:25:59;;;;;;;;;;;;;;;27.49;45.99;102012.41;5093679;28;19931;-59
2021/08/14 10:28:44;;;;;;;;;;;;;;;27.62;44.73;102016.31;5075669;28;19927;-59
2021/08/14 10:31:29;;;;;;;;;;;;;;;27.52;45.16;102021.16;5093675;28;20276;-58
2021/08/14 10:33:56;;;;;;;;;;;;;;;26.61;45.83;102024.53;5092865;28;19928;-58
2021/08/14 10:36:26;;;;;;;;;;;;;;;26.80;46.33;102018.69;5075529;28;19924;-59
2021/08/14 10:38:53;;;;;;;;;;;;;;;27.04;44.95;102014.13;5093270;28;19978;-52
2021/08/14 10:41:20;;;;;;;;;;;;;;;27.43;44.72;102023.97;5093224;28;19981;-48
2021/08/14 10:43:57;;;;;;;;;;;;;;;27.53;44.45;102017.41;5093290;28;20014;-52
2021/08/14 10:46:39;;;;;;;;;;;;;;;27.91;43.33;102017.34;5093176;28;19935;-51
2021/08/14 10:49:06;;;;;;;;;;;;;;;27.93;44.42;102023.41;5093055;28;20344;-59
2021/08/14 10:51:50;;;;;;;;;;;;;;;28.14;44.49;102015.41;5093247;28;19932;-51
2021/08/14 10:54:29;;;;;;;;;;;;;;;27.78;45.50;102020.72;5090407;28;19924;-51
2021/08/14 10:56:59;;;;;;;;;;;;;;;27.59;45.13;102019.41;5091222;28;19928;-51
2021/08/14 10:59:38;;;;;;;;;;;;;;;27.40;45.98;102018.06;5092898;28;19931;-49
2021/08/14 11:02:12;;;;;;;;;;;;;;;27.62;46.09;102016.31;5093019;28;19931;-48
2021/08/14 11:04:55;;;;;;;;;;;;;;;27.75;45.39;102019.22;5092729;28;20437;-49
2021/08/14 11:07:21;;;;;;;;;;;;;;;28.01;44.68;102020.66;5072499;28;19977;-47
2021/08/14 11:09:54;;;;;;;;;;;;;;;27.97;44.81;102011.19;5090964;28;20295;-59
2021/08/14 11:12:33;;;;;;;;;;;;;;;28.28;44.32;102015.59;5093000;28;19924;-59
2021/08/14 11:15:18;;;;;;;;;;;;;;;28.43;44.89;102018.25;5093109;28;19924;-59
2021/08/14 11:17:56;;;;;;;;;;;;;;;28.36;44.99;102017.31;5092669;28;19930;-59
2021/08/14 11:20:22;;;;;;;;;;;;;;;28.28;44.91;102018.28;5091348;28;19924;-59
2021/08/14 11:22:49;;;;;;;;;;;;;;;28.22;44.67;102011.75;5089348;28;19949;-59
2021/08/14 11:25:27;;;;;;;;;;;;;;;28.59;44.41;102014.44;5092290;28;19970;-59
2021/08/14 11:27:58;;;;;;;;;;;;;;;28.46;44.25;102013.28;5092790;28;19935;-60
2021/08/14 11:30:26;;;;;;;;;;;;;;;27.87;45.20;102014.19;5092567;28;20129;-59
2021/08/14 11:32:53;;;;;;;;;;;;;;;28.54;46.09;102030.41;5092631;28;19924;-59
2021/08/14 11:35:22;;;;;;;;;;;;;;;28.77;43.38;102017.59;5092264;28;19924;-59
2021/08/14 11:38:09;;;;;;;;;;;;;;;28.76;43.83;102015.09;5074824;28;19924;-59
2021/08/14 11:40:37;;;;;;;;;;;;;;;29.03;43.04;102018.03;5091961;28;19924;-59
2021/08/14 11:43:07;;;;;;;;;;;;;;;28.28;43.54;102019.13;5088244;28;20001;-59
2021/08/14 11:45:35;;;;;;;;;;;;;;;27.72;45.15;102006.09;5092830;28;19934;-59
2021/08/14 11:48:02;;;;;;;;;;;;;;;27.58;45.63;102005.06;5096629;28;19924;-59
2021/08/14 11:50:36;;;;;;;;;;;;;;;27.11;46.08;102009.69;5096307;28;20562;-59
2021/08/14 11:53:03;;;;;;;;;;;;;;;27.20;46.89;102006.91;5069104;28;19939;-59
2021/08/14 11:55:30;;;;;;;;;;;;;;;27.28;47.05;102010.38;5074878;28;19928;-59
2021/08/14 11:57:57;;;;;;;;;;;;;;;27.67;45.69;102003.94;5075617;28;19929;-58
2021/08/14 12:00:28;;;;;;;;;;;;;;;28.14;44.88;101991.09;5074803;28;20271;-59
2021/08/14 12:03:08;;;;;;;;;;;;;;;28.02;45.11;101998.00;5075929;28;19932;-59
2021/08/14 12:05:36;;;;;;;;;;;;;;;28.42;44.27;101986.81;5076088;28;19929;-59
2021/08/14 12:08:03;;;;;;;;;;;;;;;28.13;44.33;101983.16;5074845;28;20372;-48
2021/08/14 12:10:30;;;;;;;;;;;;;;;27.86;44.72;101985.50;5074840;28;20405;-50
2021/08/14 12:12:56;;;;;;;;;;;;;;;28.15;45.27;101979.25;5075788;28;19974;-51
2021/08/14 12:15:33;;;;;;;;;;;;;;;28.54;44.26;101981.72;5075495;28;20387;-49
2021/08/14 12:18:00;;;;;;;;;;;;;;;28.62;44.08;101990.56;5075626;28;19924;-48
2021/08/14 12:20:34;;;;;;;;;;;;;;;28.21;44.21;101983.06;5074417;28;19951;-49
2021/08/14 12:23:20;;;;;;;;;;;;;;;28.29;43.86;101982.09;5074518;28;19935;-49
2021/08/14 12:25:50;;;;;;;;;;;;;;;28.57;43.84;101987.59;5075559;28;19970;-47
2021/08/14 12:28:17;;;;;;;;;;;;;;;29.04;42.60;101976.38;5075571;28;20375;-49
2021/08/14 12:30:44;;;;;;;;;;;;;;;29.24;41.92;101987.38;5075580;28;19974;-51
2021/08/14 12:33:24;;;;;;;;;;;;;;;29.63;41.91;101986.84;5073443;28;19970;-51
2021/08/14 12:35:55;;;;;;;;;;;;;;;29.56;40.73;101993.25;5072545;28;19924;-48
2021/08/14 12:38:21;;;;;;;;;;;;;;;29.86;42.33;101982.19;5073955;28;19924;-50
2021/08/14 12:40:48;;;;;;;;;;;;;;;30.20;40.41;101986.72;5075543;28;20023;-51